• Join FlightAware (Why Join?)
  • Login
  • US Flag 
06:33AM EDT


 

Airport Tracker/Info


-or-


 

Live Flight TrackerFlight Track Log ✈ N559LC ✈ 15-Jul-2013 ✈ CYVR - KDTW

Flight Track Log - Related Links

Times and Time Zones

All times are in EDT time to prevent confusion due to time zone crossing. See the N559LC flight status page for this flight to view local times or setup timezone preferences in your user account.

Time Position Orientation Groundspeed Altitude Reporting Facility
EDT Latitude Longitude Course Direction KTS MPH feet Rate Location/Type
03:03PM 49.1667 -123.2333 90° East 180 207 1,800  Level Vancouver Center
03:04PM 49.1667 -123.3333 270° West 260 299 4,600 2,940 Climbing Vancouver Center
03:05PM 49.1500 -123.4500 258° West 280 322 7,700 2,940 Climbing Vancouver Center
03:06PM 49.0667 -123.4667 187° South 300 345 10,500 2,280 Climbing Vancouver Center
03:07PM 49.0167 -123.3667 127° Southeast 350 403 12,300 2,040 Climbing Vancouver Center
03:08PM 49.0167 -123.2167 90° East 370 426 14,600 2,280 Climbing Vancouver Center
03:09PM 48.9333 -121.9388 90° East  Level FlightAware Approximate
03:09PM 49.0167 -123.0667 90° East 390 449 16,900  Level Vancouver Center
03:10PM 49.0333 -122.8833 82° East 390 449 18,900 1,920 Climbing Vancouver Center
03:11PM 49.0333 -122.7000 90° East 410 472 20,800 1,860 Climbing Vancouver Center
03:12PM 49.0500 -122.5333 81° East 420 483 22,700 1,800 Climbing Vancouver Center
03:13PM 49.0500 -122.3167 90° East 440 506 24,400 1,620 Climbing Vancouver Center
03:14PM 49.0667 -122.1500 81° East 450 518 26,000 1,440 Climbing Vancouver Center
03:15PM 49.0667 -121.9667 90° East 460 529 27,300 1,380 Climbing Vancouver Center
03:16PM 49.0833 -121.7667 83° East 470 541 28,800 1,500 Climbing Vancouver Center
03:17PM 49.1000 -121.5500 83° East 480 552 30,400 1,680 Climbing Vancouver Center
03:18PM 49.1167 -121.3333 83° East 480 552 32,200 1,620 Climbing Vancouver Center
03:19PM 49.1167 -121.1500 90° East 480 552 33,700 1,260 Climbing Vancouver Center
03:20PM 49.1333 -120.9167 84° East 480 552 34,800 960 Climbing Vancouver Center
03:21PM 49.1500 -120.7167 83° East 490 564 35,700 1,080 Climbing Vancouver Center
03:22PM 49.1333 -120.5000 97° East 500 575 37,000 960 Climbing Vancouver Center
03:23PM 49.1500 -120.3000 83° East 500 575 37,700 660 Climbing Vancouver Center
03:24PM 49.1667 -120.1000 83° East 500 575 38,400 600 Climbing Vancouver Center
03:25PM 49.1667 -119.8667 90° East 500 575 38,900 540 Climbing Vancouver Center
03:26PM 49.1833 -119.6667 83° East 510 587 39,500 540 Climbing Vancouver Center
03:27PM 49.1833 -119.4333 90° East 510 587 40,000 420 Climbing Vancouver Center
03:28PM 49.2000 -119.2333 83° East 510 587 40,400 480 Climbing Vancouver Center
03:29PM 49.2000 -119.0000 90° East 510 587 41,000 300 Climbing Vancouver Center
03:30PM 49.2167 -118.7833 83° East 510 587 41,000  Level Vancouver Center
03:31PM 49.2167 -118.5500 90° East 510 587 41,000  Level Vancouver Center
03:32PM 49.2167 -118.3500 90° East 510 587 41,000  Level Vancouver Center
03:33PM 49.2333 -118.1167 84° East 520 598 41,000  Level Vancouver Center
03:34PM 49.2333 -117.9167 90° East 520 598 41,000  Level Vancouver Center
03:35PM 49.2500 -117.7167 83° East 520 598 41,000  Level Vancouver Center
03:36PM 49.2500 -117.4833 90° East 520 598 41,000  Level Vancouver Center
03:37PM 49.2500 -117.2500 90° East 520 598 41,000  Level Vancouver Center
03:38PM 49.2500 -117.0167 90° East 520 598 41,000  Level Vancouver Center
03:39PM 49.2500 -116.8167 90° East 520 598 41,000  Level Vancouver Center
03:40PM 49.2667 -116.5833 84° East 530 610 41,000  Level Vancouver Center
03:41PM 49.2667 -116.3500 90° East 530 610 41,000  Level Vancouver Center
03:42PM 49.2667 -116.1167 90° East 530 610 41,000  Level Vancouver Center
03:43PM 49.2500 -115.9167 97° East 520 598 41,000  Level Vancouver Center
03:44PM 49.2333 -115.6833 96° East 520 598 41,000  Level Vancouver Center
03:45PM 49.2167 -115.4500 96° East 520 598 41,000  Level Vancouver Center
03:46PM 49.2000 -115.2500 97° East 520 598 41,000  Level Vancouver Center
03:47PM 49.1833 -115.0333 97° East 520 598 41,000  Level Vancouver Center
03:48PM 49.1667 -114.8167 97° East 520 598 41,000  Level Vancouver Center
03:49PM 49.1500 -114.5667 96° East 520 598 41,000  Level Vancouver Center
03:50PM 49.1333 -114.3667 97° East 520 598 41,000  Level Vancouver Center
03:51PM 49.1000 -114.2000 107° East 520 598 41,000  Level Edmonton Center
03:52PM 49.0667 -113.9667 102° East 520 598 41,000  Level Edmonton Center
03:53PM 49.0500 -113.7667 97° East 510 587 41,000  Level Edmonton Center
03:54PM 49.0500 -113.5167 90° East 500 575 41,000  Level Edmonton Center
03:55PM 49.0333 -113.3167 97° East 520 598 41,000  Level Edmonton Center
03:56PM 49.0000 -113.1000 103° East 510 587 41,000  Level Edmonton Center
03:57PM 48.9667 -112.9000 104° East 510 587 41,000  Level Edmonton Center
03:58PM 48.9500 -112.6833 97° East 500 575 41,000  Level Edmonton Center
03:59PM 48.9333 -112.4833 97° East 500 575 41,000  Level Edmonton Center
04:00PM 48.9167 -112.2667 97° East 490 564 41,000  Level Edmonton Center
04:01PM 48.9000 -112.0667 97° East 490 564 41,000  Level Edmonton Center
04:02PM 48.8833 -111.8500 97° East 490 564 41,000  Level Edmonton Center
04:03PM 48.8333 -111.6333 109° East 490 564 41,000  Level Edmonton Center
04:04PM 48.8622 -111.4722 75° East 503 579 41,000  Level Salt Lake Center
04:05PM 48.8336 -111.2169 100° East 509 586 41,000  Level Salt Lake Center
04:06PM 48.8094 -111.0044 100° East 510 587 41,000  Level Salt Lake Center
04:07PM 48.7861 -110.7975 100° East 506 582 41,000  Level Salt Lake Center
04:08PM 48.7333 -110.5833 110° East 510 587 41,000  Level Edmonton Center
04:09PM 48.7000 -110.3667 103° East 510 587 41,000  Level Edmonton Center
04:10PM 48.6667 -110.1667 104° East 510 587 41,000  Level Edmonton Center
04:11PM 48.6500 -109.9333 96° East 510 587 41,000  Level Edmonton Center
04:12PM 48.6167 -109.7167 103° East 510 587 41,000  Level Edmonton Center
04:13PM 48.6000 -109.5167 97° East 510 587 41,000  Level Edmonton Center
04:14PM 48.5667 -109.3167 104° East 510 587 41,000  Level Edmonton Center
04:15PM 48.5333 -109.0833 102° East 510 587 41,000  Level Edmonton Center
04:16PM 48.5000 -108.8667 103° East 520 598 41,000  Level Edmonton Center
04:17PM 48.4833 -108.6667 97° East 510 587 41,000  Level Edmonton Center
04:18PM 48.4500 -108.4667 104° East 520 598 41,000  Level Edmonton Center
04:19PM 48.4333 -108.2500 97° East 520 598 41,000  Level Edmonton Center
04:20PM 48.4000 -108.0333 103° East 510 587 41,000  Level Edmonton Center
04:21PM 48.3667 -107.8167 103° East 510 587 41,000  Level Edmonton Center
04:22PM 48.3500 -107.6000 97° East 510 587 41,000  Level Edmonton Center
04:23PM 48.3000 -107.4167 112° Southeast 510 587 41,000  Level Edmonton Center
04:24PM 48.3194 -107.3189 73° East 511 588 41,000  Level Salt Lake Center
04:25PM 48.2900 -107.1125 102° East 509 586 41,000  Level Salt Lake Center
04:26PM 48.2589 -106.9094 103° East 503 579 41,000  Level Salt Lake Center
04:27PM 48.2272 -106.7058 103° East 502 578 41,000  Level Salt Lake Center
04:28PM 48.1956 -106.4578 101° East 506 582 41,000  Level Salt Lake Center
04:29PM 48.1753 -106.2517 98° East 504 580 41,000  Level Salt Lake Center
04:30PM 48.1517 -106.0450 100° East 504 580 41,000  Level Salt Lake Center
04:31PM 48.1297 -105.8394 99° East 503 579 41,000  Level Salt Lake Center
04:32PM 48.1078 -105.6328 99° East 503 579 41,000  Level Salt Lake Center
04:33PM 48.0833 -105.4269 100° East 504 580 41,000  Level Salt Lake Center
04:34PM 48.0586 -105.2189 100° East 507 583 41,000  Level Salt Lake Center
04:35PM 48.0306 -104.9711 100° East 507 583 41,000  Level Salt Lake Center
04:36PM 48.0075 -104.7647 99° East 506 582 41,000  Level Salt Lake Center
04:37PM 47.9794 -104.5603 102° East 504 580 41,000  Level Salt Lake Center
04:38PM 47.9564 -104.3528 99° East 505 581 41,000  Level Salt Lake Center
04:39PM 47.9303 -104.1486 101° East 504 580 41,000  Level Salt Lake Center
04:40PM 47.9053 -103.9406 100° East 504 580 41,000  Level Salt Lake Center
04:41PM 47.8794 -103.7314 100° East 505 581 41,000  Level Salt Lake Center
04:43PM 47.8519 -103.5200 101° East 508 585 41,000  Level Salt Lake Center
04:44PM 47.8228 -103.3131 102° East 508 585 41,000  Level Salt Lake Center
04:45PM 47.7878 -103.0694 102° East 505 581 41,000  Level Salt Lake Center
04:46PM 47.7625 -102.8672 100° East 504 580 41,000  Level Minneapolis Center
04:47PM 47.7353 -102.6647 101° East 501 577 41,000  Level Minneapolis Center
04:48PM 47.7061 -102.4647 102° East 497 572 41,000  Level Minneapolis Center
04:49PM 47.6789 -102.2636 101° East 498 573 41,000  Level Minneapolis Center
04:50PM 47.6494 -102.0622 102° East 500 575 41,000  Level Minneapolis Center
04:51PM 47.6192 -101.8639 103° East 496 571 41,000  Level Minneapolis Center
04:52PM 47.5850 -101.6258 102° East 494 568 41,000  Level Minneapolis Center
04:53PM 47.5561 -101.4261 102° East 497 572 41,000  Level Minneapolis Center
04:54PM 47.5264 -101.2289 103° East 494 568 41,000  Level Minneapolis Center
04:55PM 47.4947 -101.0336 103° East 490 564 41,000  Level Minneapolis Center
04:56PM 47.4631 -100.8250 103° East 486 559 41,000  Level Minneapolis Center
04:57PM 47.4328 -100.6294 103° East 488 562 41,000  Level Minneapolis Center
04:58PM 47.4039 -100.4733 105° East 491 565 41,000  Level Minneapolis Center
04:59PM 47.3650 -100.2419 104° East 488 562 41,000 300 Level Minneapolis Center
05:00PM 47.3275 -100.0111 103° East 485 558 41,700 540 Climbing Minneapolis Center
05:01PM 47.3031 -99.8592 103° East 481 554 42,200 600 Climbing Minneapolis Center
05:02PM 47.2644 -99.6331 104° East 478 550 43,000 720 Climbing Minneapolis Center
05:03PM 47.2336 -99.4469 104° East 475 547 43,700 660 Climbing Minneapolis Center
05:04PM 47.2003 -99.2569 104° East 477 549 44,400 600 Climbing Minneapolis Center
05:05PM 47.1606 -99.0317 104° East 478 550 45,000 240 Climbing Minneapolis Center
05:06PM 47.1275 -98.8467 105° East 476 548 45,000  Level Minneapolis Center
05:07PM 47.0942 -98.6642 105° East 471 542 45,000  Level Minneapolis Center
05:08PM 47.0608 -98.4781 105° East 473 544 45,000  Level Minneapolis Center
05:09PM 47.0269 -98.2931 105° East 475 547 45,000  Level Minneapolis Center
05:10PM 46.9864 -98.0697 105° East 476 548 45,000  Level Minneapolis Center
05:11PM 46.9511 -97.8853 106° East 476 548 45,000  Level Minneapolis Center
05:13PM 46.9169 -97.6997 105° East 477 549 45,000  Level Minneapolis Center
05:14PM 46.8811 -97.5122 106° East 482 555 45,000  Level Minneapolis Center
05:15PM 46.8456 -97.3233 105° East 485 558 45,000  Level Minneapolis Center
05:16PM 46.8019 -97.0961 106° East 487 560 45,000  Level Minneapolis Center
05:17PM 46.7625 -96.9111 107° East 481 554 45,000  Level Minneapolis Center
05:18PM 46.7056 -96.7364 115° Southeast 480 552 45,000  Level Minneapolis Center
05:19PM 46.6344 -96.5781 123° Southeast 471 542 45,000  Level Minneapolis Center
05:20PM 46.5631 -96.4172 123° Southeast 475 547 45,000  Level Minneapolis Center
05:21PM 46.4783 -96.2267 123° Southeast 470 541 45,000  Level Minneapolis Center
05:22PM 46.4083 -96.0697 123° Southeast 465 535 45,000  Level Minneapolis Center
05:23PM 46.3394 -95.9142 123° Southeast 462 532 45,000  Level Minneapolis Center
05:24PM 46.2656 -95.7517 123° Southeast 455 524 45,000  Level Minneapolis Center
05:25PM 46.1964 -95.5969 123° Southeast 458 527 45,000  Level Minneapolis Center
05:26PM 46.1250 -95.4428 124° Southeast 461 531 45,000  Level Minneapolis Center
05:27PM 46.0550 -95.2875 123° Southeast 463 533 45,000  Level Minneapolis Center
05:28PM 45.9700 -95.1022 123° Southeast 463 533 45,000  Level Minneapolis Center
05:29PM 45.9036 -94.9603 124° Southeast 457 526 45,000  Level Minneapolis Center
05:30PM 45.8342 -94.8108 124° Southeast 452 520 45,000  Level Minneapolis Center
05:31PM 45.7647 -94.6631 124° Southeast 448 516 45,000  Level Minneapolis Center
05:32PM 45.6961 -94.5197 124° Southeast 443 510 45,000  Level Minneapolis Center
05:33PM 45.6156 -94.3464 124° Southeast 437 503 45,000  Level Minneapolis Center
05:34PM 45.5478 -94.2050 124° Southeast 434 499 45,000  Level Minneapolis Center
05:35PM 45.4797 -94.0628 124° Southeast 435 501 45,000  Level Minneapolis Center
05:36PM 45.4111 -93.9192 124° Southeast 438 504 45,000  Level Minneapolis Center
05:37PM 45.3428 -93.7792 125° Southeast 435 501 45,000  Level Minneapolis Center
05:38PM 45.2739 -93.6361 124° Southeast 437 503 45,000  Level Minneapolis Center
05:40PM 45.1917 -93.4661 124° Southeast 435 501 45,000  Level Minneapolis Center
05:41PM 45.1031 -93.3028 128° Southeast 436 502 45,000  Level Minneapolis Center
05:42PM 45.0217 -93.1742 132° Southeast 435 501 45,000  Level Minneapolis Center
05:43PM 44.9397 -93.0422 131° Southeast 439 505 45,000  Level Minneapolis Center
05:44PM 44.8561 -92.9103 132° Southeast 444 511 45,000  Level Minneapolis Center
05:45PM 44.7722 -92.7792 132° Southeast 445 512 45,000  Level Minneapolis Center
05:46PM 44.6881 -92.6494 132° Southeast 447 514 45,000  Level Minneapolis Center
05:47PM 44.6053 -92.5236 133° Southeast 441 507 45,000  Level Minneapolis Center
05:48PM 44.5075 -92.3722 132° Southeast 437 503 45,000  Level Minneapolis Center
05:49PM 44.4408 -92.2711 133° Southeast 440 506 45,000  Level Minneapolis Center
05:50PM 44.3431 -92.1217 132° Southeast 436 502 45,000  Level Minneapolis Center
05:51PM 44.2617 -91.9972 132° Southeast 435 501 45,000 -60 Level Minneapolis Center
05:52PM 44.1808 -91.8706 132° Southeast 437 503 44,900 -660 Descending Minneapolis Center
05:53PM 44.1122 -91.7283 124° Southeast 441 507 43,700 -1,440 Descending Minneapolis Center
05:54PM 44.0581 -91.5358 111° Southeast 445 512 42,000 -1,260 Descending Minneapolis Center
05:55PM 44.0192 -91.3881 110° East 448 516 41,100 -540 Descending Minneapolis Center
05:56PM 43.9753 -91.2261 111° Southeast 450 518 41,000 -60 Descending Minneapolis Center
05:57PM 43.9211 -91.0281 111° Southeast 457 526 41,000  Level Minneapolis Center
05:58PM 43.8753 -90.8611 111° Southeast 464 534 41,000  Level Minneapolis Center
05:59PM 43.8289 -90.6961 111° Southeast 464 534 41,000  Level Minneapolis Center
06:00PM 43.7917 -90.5658 112° Southeast 462 532 41,000  Level Chicago Center
06:01PM 43.7453 -90.4028 111° Southeast 460 529 41,000  Level Chicago Center
06:02PM 43.6922 -90.2164 111° Southeast 461 531 41,000  Level Chicago Center
06:03PM 43.6439 -90.0519 112° Southeast 462 532 41,000  Level Chicago Center
06:04PM 43.5961 -89.8900 112° Southeast 457 526 41,000  Level Chicago Center
06:05PM 43.5486 -89.7253 112° Southeast 460 529 41,000  Level Chicago Center
06:06PM 43.4931 -89.5339 112° Southeast 460 529 41,000  Level Chicago Center
06:07PM 43.4408 -89.3731 114° Southeast 460 529 41,000  Level Chicago Center
06:08PM 43.3706 -89.2289 124° Southeast 455 524 41,000  Level Chicago Center
06:09PM 43.2958 -89.0872 126° Southeast 459 528 41,000  Level Chicago Center
06:10PM 43.2094 -88.9242 126° Southeast 456 525 41,000  Level Chicago Center
06:11PM 43.1361 -88.7867 126° Southeast 451 519 41,000  Level Chicago Center
06:13PM 43.0619 -88.6461 126° Southeast 458 527 41,000  Level Chicago Center
06:14PM 42.9881 -88.5075 126° Southeast 455 524 41,000  Level Chicago Center
06:15PM 42.9139 -88.3689 126° Southeast 453 521 41,000  Level Chicago Center
06:16PM 42.8258 -88.2069 127° Southeast 457 526 41,000 -780 Level Chicago Center
06:17PM 42.7511 -88.0689 126° Southeast 456 525 39,500 -1,500 Descending Chicago Center
06:18PM 42.6747 -87.9289 127° Southeast 459 528 37,900 -1,560 Descending Chicago Center
06:19PM 42.5978 -87.7875 126° Southeast 464 534 36,300 -1,440 Descending Chicago Center
06:20PM 42.5192 -87.6450 127° Southeast 474 545 35,000 -660 Descending Chicago Center
06:21PM 42.4250 -87.4747 127° Southeast 473 544 35,000 -360 Level Chicago Center
06:22PM 42.3461 -87.3353 127° Southeast 469 540 34,300 -960 Descending Chicago Center
06:23PM 42.2669 -87.1931 127° Southeast 474 545 33,100 -660 Descending Chicago Center
06:24PM 42.1878 -87.0528 127° Southeast 473 544 33,000 -60 Descending Chicago Center
06:25PM 42.1078 -86.9119 127° Southeast 475 547 33,000  Level Chicago Center
06:26PM 42.0272 -86.7714 128° Southeast 477 549 33,000 -480 Level Chicago Center
06:27PM 41.9494 -86.5933 120° Southeast 476 548 32,100 -1,440 Descending Chicago Center
06:28PM 41.9342 -86.4189 97° East 474 545 30,100 -1,980 Descending Chicago Center
06:29PM 41.9531 -86.2525 81° East 478 550 28,100 -2,040 Descending Chicago Center
06:30PM 41.9667 -86.0719 84° East 464 534 26,000 -1,500 Descending Chicago Center
06:31PM 41.9803 -85.9042 84° East 455 524 25,000 -540 Descending Chicago Center
06:32PM 41.9944 -85.7319 84° East 459 528 25,000 -420 Level Chicago Center
06:33PM 42.0067 -85.5506 85° East 441 507 24,200 -1,380 Descending Chicago Center
06:34PM 42.0183 -85.4078 84° East 393 452 22,200 -1,980 Descending Chicago Center
06:35PM 42.0269 -85.2694 85° East 376 433 20,200 -1,560 Descending Chicago Center
06:36PM 42.0397 -85.1094 84° East 362 417 19,000 -600 Descending Chicago Center
06:37PM 42.0481 -84.9814 85° East 349 402 19,000 -300 Level Chicago Center
06:38PM 42.0247 -84.8647 105° East 349 402 18,400 -960 Descending Chicago Center
06:39PM 41.9431 -84.8231 159° South 332 382 17,100 -1,260 Descending Chicago Center
06:40PM 41.8364 -84.7856 165° South 330 380 15,800 -1,020 Descending Chicago Center
06:42PM 41.7464 -84.7733 174° South 326 375 15,000 -1,020 Descending Chicago Center
06:43PM 41.6567 -84.7644 176° South 323 372 13,800 -1,020 Descending Chicago Center
06:44PM 41.5731 -84.7350 165° South 319 367 13,000 -420 Descending Chicago Center
06:45PM 41.5886 -84.6408 78° East 313 360 13,000  Level Chicago Center
06:45PM 41.6703 -84.6086 16° North 164 189 13,000  Level Cleveland Center
06:46PM 41.7506 -84.5775 16° North 251 289 13,000  Level Cleveland Center
06:47PM 41.8308 -84.5492 15° North 263 303 13,000  Level Cleveland Center
06:48PM 41.8814 -84.4714 49° Northeast 259 298 13,000 -180 Level Cleveland Center
06:50PM 41.8650 -84.3392 99° East 310 357 12,700 -540 Descending Cleveland Center
06:50PM 41.8511 -84.2547 102° East 274 315 12,000 -420 Descending Cleveland Center
06:51PM 41.8378 -84.1453 99° East 284 327 12,000  Level Cleveland Center
06:53PM 41.8503 -84.0094 83° East 298 343 12,000  Level Cleveland Center
06:53PM 41.8836 -83.9386 58° Northeast 290 334 12,000  Level Cleveland Center
06:54PM 41.9342 -83.8492 53° Northeast 285 328 12,000  Level Cleveland Center
06:55PM 41.9828 -83.7567 55° Northeast 290 334 12,000  Level Cleveland Center
06:56PM 42.0269 -83.6608 58° Northeast 297 342 12,000  Level Cleveland Center
06:57PM 42.0669 -83.5761 58° Northeast 285 328 12,000  Level Cleveland Center
06:58PM 42.1022 -83.4967 59° Northeast 253 291 12,000 -660 Level Cleveland Center
07:00PM 42.1078 -83.3597 87° East 265 305 10,600 -1,500 Descending Cleveland Center
07:01PM 42.1122 -83.2564 87° East 280 322 8,600 -1,920 Descending Cleveland Center
07:02PM 42.1228 -83.1617 81° East 248 285 6,800 -1,740 Descending Cleveland Center
07:03PM 42.1308 -83.0722 83° East 246 283 5,100 -1,500 Descending Cleveland Center
07:04PM 42.1389 -82.9914 82° East 238 274 4,000 -600 Descending Cleveland Center
07:05PM 42.1775 -82.9397 45° Northeast 231 266 4,000  Level Cleveland Center